Time;durP1;ratioP1;P1;durP2;ratioP2;P2;SDS_P1;SDS_P2;PMS_P1;PMS_P2;Temp;Humidity;BMP_temperature;BMP_pressure;BME280_temperature;BME280_humidity;BME280_pressure;Samples;Min_cycle;Max_cycle;Signal;HPM_P1;HPM_P2
2023/10/02 00:01:57;;;;;;;15.07;9.87;;;;;;;;;;6227963;28;20190;-71
2023/10/02 00:05:04;;;;;;;13.57;9.50;;;;;;;;;;6211198;28;20222;-71
2023/10/02 00:08:06;;;;;;;14.90;8.87;;;;;;;;;;6214959;28;20191;-71
2023/10/02 00:14:38;;;;;;;12.47;8.40;;;;;;;;;;6238310;28;20220;-71
2023/10/02 00:17:43;;;;;;;14.57;8.87;;;;;;;;;;6232101;28;20190;-71
2023/10/02 00:20:44;;;;;;;13.87;9.07;;;;;;;;;;6236099;28;20195;-71
2023/10/02 00:23:59;;;;;;;15.37;9.70;;;;;;;;;;6207820;28;20256;-71
2023/10/02 00:27:01;;;;;;;15.37;10.23;;;;;;;;;;6232994;28;20183;-71
2023/10/02 00:30:02;;;;;;;16.40;10.37;;;;;;;;;;6215803;28;20190;-71
2023/10/02 00:33:11;;;;;;;14.97;10.27;;;;;;;;;;6205057;28;20199;-71
2023/10/02 00:36:14;;;;;;;17.70;10.30;;;;;;;;;;6234016;28;20197;-71
2023/10/02 00:39:32;;;;;;;14.93;9.60;;;;;;;;;;6237581;28;20183;-71
2023/10/02 00:42:33;;;;;;;15.07;10.10;;;;;;;;;;6217935;28;20218;-71
2023/10/02 00:45:38;;;;;;;19.73;10.50;;;;;;;;;;6221996;28;20202;-71
2023/10/02 00:48:39;;;;;;;16.60;10.53;;;;;;;;;;6213215;28;20195;-71
2023/10/02 00:51:40;;;;;;;15.33;9.83;;;;;;;;;;6196610;28;20183;-71
2023/10/02 00:54:42;;;;;;;15.23;9.73;;;;;;;;;;6218484;28;20194;-71
2023/10/02 00:57:45;;;;;;;14.00;9.67;;;;;;;;;;6206183;28;20214;-71
2023/10/02 01:00:50;;;;;;;16.50;9.70;;;;;;;;;;6209092;28;20192;-71
2023/10/02 01:04:10;;;;;;;17.17;10.23;;;;;;;;;;6219078;28;20219;-71
2023/10/02 01:07:11;;;;;;;17.70;10.33;;;;;;;;;;6225582;28;20191;-71
2023/10/02 01:10:19;;;;;;;13.13;9.07;;;;;;;;;;6215170;28;20186;-71
2023/10/02 01:13:22;;;;;;;14.07;10.67;;;;;;;;;;6233080;28;20184;-71
2023/10/02 01:16:23;;;;;;;18.00;10.07;;;;;;;;;;6219275;28;20190;-71
2023/10/02 01:19:25;;;;;;;16.93;10.63;;;;;;;;;;6202382;28;20194;-71
2023/10/02 01:22:32;;;;;;;14.50;10.10;;;;;;;;;;6234961;28;20242;-71
2023/10/02 01:25:36;;;;;;;14.33;9.37;;;;;;;;;;6219108;28;20247;-71
2023/10/02 01:28:49;;;;;;;15.23;9.63;;;;;;;;;;6213563;28;20191;-71
2023/10/02 01:31:52;;;;;;;15.77;10.37;;;;;;;;;;6224156;28;20190;-71
2023/10/02 01:34:53;;;;;;;14.93;9.53;;;;;;;;;;6213037;28;20201;-71
2023/10/02 01:37:55;;;;;;;18.10;9.93;;;;;;;;;;6208200;28;20218;-71
2023/10/02 01:41:04;;;;;;;14.27;9.83;;;;;;;;;;6224152;28;20205;-71
2023/10/02 01:44:18;;;;;;;14.07;10.23;;;;;;;;;;6211845;28;20302;-71
2023/10/02 01:47:20;;;;;;;16.63;10.17;;;;;;;;;;6221980;28;20246;-71
2023/10/02 01:50:24;;;;;;;16.20;9.67;;;;;;;;;;6232361;28;20194;-71
2023/10/02 01:53:31;;;;;;;17.50;10.37;;;;;;;;;;6204229;28;20206;-71
2023/10/02 01:56:34;;;;;;;16.37;9.57;;;;;;;;;;6211515;28;20191;-71
2023/10/02 01:59:35;;;;;;;16.10;10.17;;;;;;;;;;6209712;28;20198;-71
2023/10/02 02:02:36;;;;;;;18.13;10.70;;;;;;;;;;6212541;28;20191;-71
2023/10/02 02:05:37;;;;;;;18.50;9.70;;;;;;;;;;6207364;28;20301;-71
2023/10/02 02:08:43;;;;;;;14.47;9.60;;;;;;;;;;6205273;28;20198;-71
2023/10/02 02:12:05;;;;;;;15.23;9.87;;;;;;;;;;6224055;28;20187;-71
2023/10/02 02:15:06;;;;;;;15.70;10.50;;;;;;;;;;6235983;28;20192;-71
2023/10/02 02:18:07;;;;;;;16.40;10.07;;;;;;;;;;6209359;28;20201;-71
2023/10/02 02:21:10;;;;;;;14.77;9.57;;;;;;;;;;6203066;28;20187;-71
2023/10/02 02:24:11;;;;;;;17.17;10.10;;;;;;;;;;6209805;28;20243;-71
2023/10/02 02:27:13;;;;;;;14.43;9.93;;;;;;;;;;6212092;28;20246;-71
2023/10/02 02:30:17;;;;;;;17.90;10.07;;;;;;;;;;6208996;28;20207;-71
2023/10/02 02:33:34;;;;;;;14.83;9.33;;;;;;;;;;6215169;28;20198;-71
2023/10/02 02:36:35;;;;;;;17.10;10.00;;;;;;;;;;6227038;28;20185;-71
2023/10/02 02:39:37;;;;;;;15.47;10.37;;;;;;;;;;6214885;28;20257;-71
2023/10/02 02:42:38;;;;;;;15.73;10.00;;;;;;;;;;6206886;28;20269;-71
2023/10/02 02:45:39;;;;;;;13.77;10.20;;;;;;;;;;6211064;28;20227;-71
2023/10/02 02:48:44;;;;;;;16.57;10.20;;;;;;;;;;6215914;28;20207;-71
2023/10/02 02:51:48;;;;;;;15.93;9.90;;;;;;;;;;6212962;28;20190;-71
2023/10/02 02:54:59;;;;;;;15.77;9.80;;;;;;;;;;6204860;28;20285;-71
2023/10/02 02:58:00;;;;;;;18.67;10.17;;;;;;;;;;6228956;28;20201;-71
2023/10/02 03:01:01;;;;;;;19.37;10.67;;;;;;;;;;6209149;28;20191;-71
2023/10/02 03:04:11;;;;;;;15.13;9.90;;;;;;;;;;6198875;28;20210;-71
2023/10/02 03:07:29;;;;;;;18.63;11.53;;;;;;;;;;6198873;28;20191;-71
2023/10/02 03:10:36;;;;;;;16.00;9.97;;;;;;;;;;6217176;28;20198;-71
2023/10/02 03:13:41;;;;;;;15.27;9.60;;;;;;;;;;6215794;28;20196;-70
2023/10/02 03:16:45;;;;;;;16.70;9.90;;;;;;;;;;6224220;28;20200;-71
2023/10/02 03:19:46;;;;;;;18.63;10.43;;;;;;;;;;6202166;28;20190;-71
2023/10/02 03:22:51;;;;;;;14.13;9.50;;;;;;;;;;6224405;28;20235;-71
2023/10/02 03:25:56;;;;;;;19.57;10.33;;;;;;;;;;6210297;28;20206;-71
2023/10/02 03:29:04;;;;;;;16.87;10.87;;;;;;;;;;6208410;28;20192;-72
2023/10/02 03:32:06;;;;;;;17.87;10.97;;;;;;;;;;6209373;28;20275;-72
2023/10/02 03:35:11;;;;;;;16.27;10.50;;;;;;;;;;6195376;28;20188;-72
2023/10/02 03:38:14;;;;;;;16.97;10.03;;;;;;;;;;6210981;28;20204;-72
2023/10/02 03:41:16;;;;;;;15.93;10.10;;;;;;;;;;6214424;28;20187;-72
2023/10/02 03:44:17;;;;;;;14.90;9.83;;;;;;;;;;6220469;28;20239;-72
2023/10/02 03:47:18;;;;;;;17.03;10.83;;;;;;;;;;6206132;28;20190;-71
2023/10/02 03:50:19;;;;;;;16.63;11.30;;;;;;;;;;6210640;28;20258;-72
2023/10/02 03:53:28;;;;;;;17.57;10.10;;;;;;;;;;6212968;28;20229;-72
2023/10/02 03:56:42;;;;;;;15.50;10.30;;;;;;;;;;6210772;28;20198;-72
2023/10/02 03:59:52;;;;;;;18.50;11.73;;;;;;;;;;6213470;28;20202;-72
2023/10/02 04:02:54;;;;;;;16.97;10.07;;;;;;;;;;6208655;28;20203;-72
2023/10/02 04:05:55;;;;;;;18.47;10.33;;;;;;;;;;6224896;28;20248;-72
2023/10/02 04:09:07;;;;;;;21.70;10.83;;;;;;;;;;6208491;28;20195;-71
2023/10/02 04:12:12;;;;;;;14.70;10.60;;;;;;;;;;6198385;28;20196;-70
2023/10/02 04:15:14;;;;;;;14.83;10.47;;;;;;;;;;6202860;28;20202;-72
2023/10/02 04:18:45;;;;;;;18.77;11.23;;;;;;;;;;6224179;28;20211;-71
2023/10/02 04:21:37;;;;;;;15.97;10.53;;;;;;;;;;6244209;28;20205;-69
2023/10/02 04:31:05;;;;;;;16.00;10.37;;;;;;;;;;6240703;28;20209;-73
2023/10/02 04:34:23;;;;;;;18.63;10.50;;;;;;;;;;6225311;28;20205;-73
2023/10/02 04:37:24;;;;;;;16.83;10.20;;;;;;;;;;6214307;28;20191;-73
2023/10/02 04:40:44;;;;;;;17.40;10.33;;;;;;;;;;6210480;28;20223;-73
2023/10/02 04:43:48;;;;;;;16.77;10.50;;;;;;;;;;6210815;28;20253;-73
2023/10/02 04:46:52;;;;;;;20.37;10.13;;;;;;;;;;6205048;28;20282;-73
2023/10/02 04:53:22;;;;;;;17.37;10.53;;;;;;;;;;6196856;28;20187;-73
2023/10/02 04:56:24;;;;;;;19.80;10.60;;;;;;;;;;6208172;28;20291;-73
2023/10/02 04:59:50;;;;;;;16.17;10.70;;;;;;;;;;6215549;28;20186;-73
2023/10/02 05:02:47;;;;;;;16.93;10.67;;;;;;;;;;6222942;28;20318;-73
2023/10/02 05:05:49;;;;;;;16.20;10.13;;;;;;;;;;6206236;28;20214;-73
2023/10/02 05:11:57;;;;;;;17.43;10.90;;;;;;;;;;6217272;28;20213;-73
2023/10/02 05:15:07;;;;;;;19.97;10.63;;;;;;;;;;6234228;28;20192;-73
2023/10/02 05:18:09;;;;;;;19.43;10.67;;;;;;;;;;6230286;28;20191;-73
2023/10/02 05:21:17;;;;;;;21.07;11.63;;;;;;;;;;6218839;28;20192;-73
2023/10/02 05:24:19;;;;;;;17.70;11.23;;;;;;;;;;6238290;28;20223;-73
2023/10/02 05:27:29;;;;;;;18.47;11.20;;;;;;;;;;6233229;28;20189;-73
2023/10/02 05:30:41;;;;;;;22.27;11.83;;;;;;;;;;6211930;28;20244;-74
2023/10/02 05:33:43;;;;;;;16.50;10.13;;;;;;;;;;6217436;28;20216;-74
2023/10/02 05:43:21;;;;;;;18.10;10.23;;;;;;;;;;6218111;28;20214;-74
2023/10/02 05:46:22;;;;;;;17.30;10.37;;;;;;;;;;6219230;28;20190;-73
2023/10/02 05:49:24;;;;;;;18.60;10.17;;;;;;;;;;6224222;28;20175;-73
2023/10/02 05:52:27;;;;;;;21.40;11.30;;;;;;;;;;6213691;28;20191;-73
2023/10/02 05:55:54;;;;;;;17.40;10.20;;;;;;;;;;6218231;28;20184;-73
2023/10/02 05:58:49;;;;;;;18.87;10.97;;;;;;;;;;6221938;28;20191;-73
2023/10/02 06:01:52;;;;;;;21.20;10.43;;;;;;;;;;6218953;28;20187;-73
2023/10/02 06:04:54;;;;;;;21.77;12.37;;;;;;;;;;6229421;28;20294;-73
2023/10/02 06:07:59;;;;;;;19.20;10.70;;;;;;;;;;6216136;28;20195;-74
2023/10/02 06:11:25;;;;;;;20.30;11.37;;;;;;;;;;6205773;28;20191;-73
2023/10/02 06:14:27;;;;;;;16.33;10.83;;;;;;;;;;6225475;28;20220;-73
2023/10/02 06:17:32;;;;;;;19.43;10.67;;;;;;;;;;6205188;28;20199;-74
2023/10/02 06:20:33;;;;;;;16.43;10.33;;;;;;;;;;6199370;28;20278;-74
2023/10/02 06:23:45;;;;;;;21.03;11.57;;;;;;;;;;6204720;28;20239;-73
2023/10/02 06:26:49;;;;;;;22.33;11.80;;;;;;;;;;6208694;28;20255;-73
2023/10/02 06:29:52;;;;;;;21.63;10.97;;;;;;;;;;6210245;28;20263;-74
2023/10/02 06:32:53;;;;;;;19.73;10.83;;;;;;;;;;6232437;28;20218;-73
2023/10/02 06:36:00;;;;;;;18.17;11.87;;;;;;;;;;6209466;28;20199;-73
2023/10/02 06:39:01;;;;;;;19.60;11.87;;;;;;;;;;6207727;28;20195;-73
2023/10/02 06:42:06;;;;;;;20.53;10.83;;;;;;;;;;6212867;28;20312;-73
2023/10/02 06:45:15;;;;;;;17.53;10.77;;;;;;;;;;6220732;28;20210;-73
2023/10/02 06:48:20;;;;;;;22.10;11.47;;;;;;;;;;6213153;28;20195;-73
2023/10/02 06:51:21;;;;;;;18.23;11.03;;;;;;;;;;6217819;28;20191;-73
2023/10/02 06:54:22;;;;;;;19.70;10.70;;;;;;;;;;6208279;28;20195;-73
2023/10/02 06:57:26;;;;;;;20.13;10.53;;;;;;;;;;6201616;28;20246;-73
2023/10/02 07:00:54;;;;;;;21.00;12.17;;;;;;;;;;6224277;28;20191;-73
2023/10/02 07:03:52;;;;;;;19.77;11.43;;;;;;;;;;6243267;28;20219;-74
2023/10/02 07:06:53;;;;;;;21.00;10.33;;;;;;;;;;6208509;28;20209;-73
2023/10/02 07:09:54;;;;;;;20.07;11.23;;;;;;;;;;6201054;28;20215;-74
2023/10/02 07:13:18;;;;;;;19.30;10.50;;;;;;;;;;6225878;28;20261;-73
2023/10/02 07:16:22;;;;;;;17.00;10.70;;;;;;;;;;6231551;28;20196;-73
2023/10/02 07:19:38;;;;;;;20.03;11.37;;;;;;;;;;6211909;28;20195;-73
2023/10/02 07:22:40;;;;;;;18.57;11.13;;;;;;;;;;6210843;28;20235;-74
2023/10/02 07:25:50;;;;;;;17.50;11.10;;;;;;;;;;6210867;28;20207;-74
2023/10/02 07:28:51;;;;;;;21.37;11.03;;;;;;;;;;6224037;28;20198;-73
2023/10/02 07:31:52;;;;;;;21.37;11.67;;;;;;;;;;6209042;28;20218;-73
2023/10/02 07:34:54;;;;;;;21.03;11.17;;;;;;;;;;6209107;28;20233;-73
2023/10/02 07:38:01;;;;;;;18.87;11.17;;;;;;;;;;6201443;28;20254;-74
2023/10/02 07:41:07;;;;;;;19.67;10.60;;;;;;;;;;6210735;28;20213;-73
2023/10/02 07:44:08;;;;;;;21.37;10.97;;;;;;;;;;6201977;28;20216;-73
2023/10/02 07:47:10;;;;;;;20.83;11.80;;;;;;;;;;6212640;28;20190;-73
2023/10/02 07:50:23;;;;;;;19.00;11.53;;;;;;;;;;6214398;28;20184;-74
2023/10/02 07:53:38;;;;;;;20.67;11.13;;;;;;;;;;6216930;28;20191;-73
2023/10/02 07:56:41;;;;;;;20.60;12.00;;;;;;;;;;6212598;28;20191;-73
2023/10/02 07:59:43;;;;;;;19.63;10.60;;;;;;;;;;6225175;28;20183;-73
2023/10/02 08:02:44;;;;;;;20.07;11.90;;;;;;;;;;6215537;28;20197;-74
2023/10/02 08:05:46;;;;;;;20.53;12.00;;;;;;;;;;6207428;28;20223;-74
2023/10/02 08:12:29;;;;;;;19.43;11.43;;;;;;;;;;6246074;28;20187;-74
2023/10/02 08:15:32;;;;;;;19.23;11.30;;;;;;;;;;6215685;28;20200;-73
2023/10/02 08:18:48;;;;;;;21.37;11.60;;;;;;;;;;6214662;28;20191;-73
2023/10/02 08:21:55;;;;;;;22.50;12.53;;;;;;;;;;6236932;28;20363;-74
2023/10/02 08:24:56;;;;;;;19.07;11.07;;;;;;;;;;6190978;28;20239;-73
2023/10/02 08:27:57;;;;;;;20.67;11.13;;;;;;;;;;6222153;28;20183;-74
2023/10/02 08:31:01;;;;;;;22.47;11.43;;;;;;;;;;6214013;28;20274;-73
2023/10/02 08:34:05;;;;;;;21.70;11.80;;;;;;;;;;6209327;28;20202;-74
2023/10/02 08:37:09;;;;;;;16.73;11.20;;;;;;;;;;6217364;28;20278;-74
2023/10/02 08:40:11;;;;;;;17.80;10.73;;;;;;;;;;6217487;28;20203;-73
2023/10/02 08:43:12;;;;;;;17.37;10.97;;;;;;;;;;6213457;28;20223;-74
2023/10/02 08:46:21;;;;;;;17.80;10.13;;;;;;;;;;6212223;28;20202;-74
2023/10/02 08:49:25;;;;;;;20.93;11.70;;;;;;;;;;6219057;28;20196;-73
2023/10/02 08:52:38;;;;;;;20.57;12.47;;;;;;;;;;6230533;28;20203;-74
2023/10/02 08:58:46;;;;;;;19.17;11.03;;;;;;;;;;6232475;28;20214;-74
2023/10/02 09:01:50;;;;;;;16.90;9.70;;;;;;;;;;6231446;28;20724;-73
2023/10/02 09:04:55;;;;;;;22.03;11.40;;;;;;;;;;6225930;28;20239;-73
2023/10/02 09:11:00;;;;;;;16.43;10.83;;;;;;;;;;6250980;28;20182;-73
2023/10/02 09:17:25;;;;;;;18.67;10.90;;;;;;;;;;6233999;28;20188;-74
2023/10/02 09:20:38;;;;;;;17.80;10.97;;;;;;;;;;6212710;28;20195;-74
2023/10/02 09:23:53;;;;;;;18.10;10.33;;;;;;;;;;6212646;28;20246;-73
2023/10/02 09:27:19;;;;;;;18.80;11.47;;;;;;;;;;6225303;28;20202;-74
2023/10/02 09:30:21;;;;;;;18.07;10.73;;;;;;;;;;6234561;28;20184;-74
2023/10/02 09:33:25;;;;;;;19.13;11.10;;;;;;;;;;6223945;28;20191;-74
2023/10/02 09:36:36;;;;;;;22.70;11.67;;;;;;;;;;6212069;28;20256;-74
2023/10/02 09:39:38;;;;;;;14.97;10.07;;;;;;;;;;6209111;28;20191;-74
2023/10/02 09:42:45;;;;;;;19.13;11.03;;;;;;;;;;6205327;28;20191;-74
2023/10/02 09:45:47;;;;;;;13.77;9.53;;;;;;;;;;6204172;28;20226;-73
2023/10/02 09:48:53;;;;;;;18.00;11.50;;;;;;;;;;6232646;28;20187;-74
2023/10/02 09:55:16;;;;;;;19.57;10.53;;;;;;;;;;6245505;28;20184;-74
2023/10/02 09:58:30;;;;;;;18.73;11.33;;;24.00;50.00;;;;;;6234038;28;20190;-73
2023/10/02 10:01:34;;;;;;;17.13;10.70;;;17.00;75.60;;;;;;6232131;28;20250;-74
2023/10/02 10:05:00;;;;;;;20.37;10.70;;;;;;;;;;6208109;28;20250;-73
2023/10/02 10:11:13;;;;;;;18.87;11.67;;;;;;;;;;6235374;28;20220;-73
2023/10/02 10:14:36;;;;;;;17.63;10.90;;;;;;;;;;6218357;28;20194;-73
2023/10/02 10:17:49;;;;;;;20.83;11.60;;;;;;;;;;6220096;28;20191;-73
2023/10/02 10:20:54;;;;;;;18.67;11.23;;;;;;;;;;6225804;28;20243;-73
2023/10/02 10:24:15;;;;;;;18.90;12.53;;;;;;;;;;6210542;28;20285;-73
2023/10/02 10:27:36;;;;;;;20.30;12.30;;;;;;;;;;6226137;28;20207;-72
2023/10/02 10:33:40;;;;;;;17.90;11.50;;;;;;;;;;6241650;28;20195;-73
2023/10/02 10:36:41;;;;;;;19.97;11.30;;;;;;;;;;6210054;28;20203;-70
2023/10/02 10:39:53;;;;;;;18.53;11.27;;;;;;;;;;6211963;28;20210;-70
2023/10/02 10:42:59;;;;;;;19.57;11.77;;;;;;;;;;6209548;28;20231;-70
2023/10/02 10:46:12;;;;;;;20.70;11.53;;;;;;;;;;6223919;28;20216;-69
2023/10/02 10:49:27;;;;;;;24.37;12.13;;;;;;;;;;6228888;28;20233;-69
2023/10/02 10:52:35;;;;;;;23.80;12.97;;;;;;;;;;6214140;28;20246;-69
2023/10/02 10:55:36;;;;;;;19.17;12.17;;;;;;;;;;6214782;28;20196;-72
2023/10/02 10:58:37;;;;;;;17.97;12.43;;;;;;;;;;6220505;28;20190;-72
2023/10/02 11:01:39;;;;;;;18.90;11.87;;;;;;;;;;6216784;28;20195;-72
2023/10/02 11:04:47;;;;;;;19.43;11.83;;;;;;;;;;6203998;28;20208;-71
2023/10/02 11:07:48;;;;;;;16.83;11.33;;;;;;;;;;6221832;28;20184;-72
2023/10/02 11:10:50;;;;;;;17.80;11.90;;;;;;;;;;6213376;28;20177;-72
2023/10/02 11:13:58;;;;;;;18.67;11.93;;;;;;;;;;6199029;28;20285;-72
2023/10/02 11:17:01;;;;;;;18.30;11.63;;;;;;;;;;6241180;28;20235;-72
2023/10/02 11:20:07;;;;;;;18.57;12.70;;;;;;;;;;6227951;28;20191;-72
2023/10/02 11:23:08;;;;;;;22.83;12.97;;;;;;;;;;6207949;28;20266;-72
2023/10/02 11:26:13;;;;;;;20.93;12.60;;;;;;;;;;6216606;28;20213;-72
2023/10/02 11:29:20;;;;;;;18.53;12.07;;;;;;;;;;6225107;28;20184;-72
2023/10/02 11:32:24;;;;;;;18.57;11.57;;;;;;;;;;6227722;28;20189;-73
2023/10/02 11:35:28;;;;;;;19.70;12.80;;;;;;;;;;6204265;28;20261;-73
2023/10/02 11:38:30;;;;;;;19.30;11.10;;;;;;;;;;6200373;28;20213;-73
2023/10/02 11:41:32;;;;;;;20.77;12.27;;;;;;;;;;6212386;28;20256;-73
2023/10/02 11:44:33;;;;;;;17.67;12.17;;;;;;;;;;6203013;28;20211;-72
2023/10/02 11:47:35;;;;;;;19.67;12.43;;;;;;;;;;6219801;28;20187;-72
2023/10/02 11:50:38;;;;;;;17.77;11.50;;;;;;;;;;6227117;28;20193;-71
2023/10/02 11:53:39;;;;;;;18.63;12.30;;;;;;;;;;6192384;28;20198;-70
2023/10/02 11:56:40;;;;;;;19.20;12.47;;;;;;;;;;6202491;28;20229;-70
2023/10/02 11:59:42;;;;;;;15.47;11.17;;;;;;;;;;6212804;28;20190;-70
2023/10/02 12:02:46;;;;;;;19.23;11.93;;;;;;;;;;6212825;28;20190;-70
2023/10/02 12:05:50;;;;;;;16.53;11.57;;;;;;;;;;6215589;28;20210;-70
2023/10/02 12:08:52;;;;;;;14.90;11.13;;;;;;;;;;6211469;28;20192;-70
2023/10/02 12:11:53;;;;;;;17.43;11.73;;;;;;;;;;6238606;28;20182;-70
2023/10/02 12:14:55;;;;;;;19.10;11.67;;;;;;;;;;6208144;28;20206;-70
2023/10/02 12:17:56;;;;;;;16.40;11.53;;;;;;;;;;6209146;28;20202;-70
2023/10/02 12:20:57;;;;;;;15.40;11.30;;;;;;;;;;6207671;28;20186;-70
2023/10/02 12:24:00;;;;;;;15.50;11.40;;;;;;;;;;6198060;28;20235;-70
2023/10/02 12:27:02;;;;;;;13.03;10.40;;;;;;;;;;6233904;28;20190;-70
2023/10/02 12:30:05;;;;;;;16.17;12.23;;;;;;;;;;6237710;28;20187;-70
2023/10/02 12:33:06;;;;;;;14.80;12.23;;;;;;;;;;6222881;28;20201;-70
2023/10/02 12:36:15;;;;;;;13.30;11.60;;;;;;;;;;6206872;28;20190;-70
2023/10/02 12:39:16;;;;;;;14.73;11.90;;;;;;;;;;6203794;28;20195;-70
2023/10/02 12:42:17;;;;;;;15.20;12.30;;;;;;;;;;6192618;28;20183;-70
2023/10/02 12:45:18;;;;;;;16.03;12.70;;;;;;;;;;6211063;28;20260;-70
2023/10/02 12:48:20;;;;;;;15.30;11.43;;;;;;;;;;6207859;28;20183;-70
2023/10/02 12:51:22;;;;;;;16.70;12.70;;;;;;;;;;6227493;28;20218;-70
2023/10/02 12:54:23;;;;;;;17.27;13.00;;;;;;;;;;6231053;28;20281;-70
2023/10/02 12:57:25;;;;;;;17.03;12.10;;;;;;;;;;6221276;28;20262;-70
2023/10/02 13:00:27;;;;;;;18.23;12.93;;;;;;;;;;6212821;28;20194;-70
2023/10/02 13:03:32;;;;;;;16.80;12.70;;;;;;;;;;6213472;28;20273;-70
2023/10/02 13:06:33;;;;;;;15.27;12.37;;;24.20;60.70;;;;;;6226101;28;20184;-70
2023/10/02 13:09:34;;;;;;;18.37;13.57;;;25.40;56.60;;;;;;6221104;28;20189;-70
2023/10/02 13:12:34;;;;;;;17.30;11.70;;;25.50;55.60;;;;;;6207624;28;20276;-70
2023/10/02 13:15:36;;;;;;;16.03;12.27;;;25.60;56.60;;;;;;6195885;28;20396;-70
2023/10/02 13:18:37;;;;;;;17.33;12.30;;;25.80;54.80;;;;;;6191283;28;20203;-70
2023/10/02 13:21:40;;;;;;;19.57;12.83;;;;;;;;;;6220915;28;20191;-69
2023/10/02 13:24:42;;;;;;;15.67;11.63;;;;;;;;;;6209548;28;20211;-70
2023/10/02 13:27:43;;;;;;;17.77;11.77;;;;;;;;;;6223854;28;20187;-70
2023/10/02 13:30:44;;;;;;;13.83;11.47;;;;;;;;;;6211632;28;20232;-70
2023/10/02 13:33:47;;;;;;;13.27;11.07;;;31.70;45.30;;;;;;6209434;28;20281;-70
2023/10/02 13:36:48;;;;;;;14.73;12.07;;;;;;;;;;6222499;28;20290;-70
2023/10/02 13:39:49;;;;;;;15.33;11.83;;;;;;;;;;6224969;28;20241;-70
2023/10/02 13:42:50;;;;;;;17.33;12.57;;;32.00;45.20;;;;;;6193305;28;20191;-70
2023/10/02 13:45:51;;;;;;;15.37;12.10;;;32.40;43.70;;;;;;6181472;28;20273;-70
2023/10/02 13:48:52;;;;;;;15.80;12.53;;;31.70;43.80;;;;;;6190836;28;20196;-70
2023/10/02 13:51:54;;;;;;;13.77;11.93;;;31.30;45.10;;;;;;6228042;28;20206;-70
2023/10/02 13:54:55;;;;;;;15.60;12.67;;;31.20;43.60;;;;;;6204114;28;20198;-70
2023/10/02 13:57:57;;;;;;;15.20;12.53;;;31.20;44.40;;;;;;6216691;28;20207;-70
2023/10/02 14:01:05;;;;;;;17.03;12.70;;;31.30;44.00;;;;;;6203733;28;20281;-70
2023/10/02 14:04:10;;;;;;;14.37;11.97;;;31.40;44.00;;;;;;6210736;28;20215;-70
2023/10/02 14:07:11;;;;;;;13.90;11.53;;;31.40;43.40;;;;;;6187983;28;20226;-70
2023/10/02 14:10:13;;;;;;;15.60;12.60;;;31.10;45.40;;;;;;6189419;28;20198;-71
2023/10/02 14:13:14;;;;;;;13.77;11.53;;;31.40;44.60;;;;;;6198190;28;20218;-70
2023/10/02 14:16:19;;;;;;;17.33;12.63;;;31.40;43.90;;;;;;6218374;28;20190;-70
2023/10/02 14:19:21;;;;;;;16.17;12.77;;;31.10;44.30;;;;;;6213546;28;20210;-70
2023/10/02 14:22:22;;;;;;;15.80;12.23;;;;;;;;;;6192000;28;20230;-70
2023/10/02 14:25:25;;;;;;;15.10;11.93;;;;;;;;;;6210164;28;20218;-71
2023/10/02 14:28:30;;;;;;;14.53;12.37;;;;;;;;;;6212217;28;20195;-71
2023/10/02 14:31:31;;;;;;;16.60;12.07;;;30.70;44.90;;;;;;6235508;28;20210;-70
2023/10/02 14:34:33;;;;;;;16.40;12.13;;;30.00;46.20;;;;;;6194432;28;20290;-69
2023/10/02 14:37:35;;;;;;;14.67;11.30;;;30.00;46.90;;;;;;6210342;28;20257;-69
2023/10/02 14:40:36;;;;;;;17.47;11.23;;;;;;;;;;6205637;28;20205;-70
2023/10/02 14:43:36;;;;;;;16.97;12.87;;;29.50;47.70;;;;;;6208410;28;20199;-68
2023/10/02 14:46:39;;;;;;;19.60;12.03;;;;;;;;;;6200599;28;20236;-70
2023/10/02 14:49:40;;;;;;;14.37;12.27;;;;;;;;;;6203985;28;20184;-72
2023/10/02 14:52:41;;;;;;;17.37;13.20;;;29.40;47.70;;;;;;6225106;28;20179;-71
2023/10/02 14:55:46;;;;;;;14.97;12.10;;;29.50;47.50;;;;;;6200968;28;20248;-70
2023/10/02 14:58:47;;;;;;;15.80;12.47;;;29.80;47.20;;;;;;6182306;28;20195;-70
2023/10/02 15:01:47;;;;;;;15.10;12.33;;;29.70;46.00;;;;;;6183555;28;20186;-71
2023/10/02 15:04:48;;;;;;;16.50;11.97;;;29.60;46.70;;;;;;6200101;28;20304;-70
2023/10/02 15:07:52;;;;;;;16.03;12.67;;;29.50;47.50;;;;;;6187064;28;20273;-69
2023/10/02 15:10:53;;;;;;;16.77;12.50;;;29.30;47.90;;;;;;6237561;28;20515;-67
2023/10/02 15:13:54;;;;;;;15.07;12.07;;;29.30;47.80;;;;;;6202591;28;20193;-67
2023/10/02 15:16:56;;;;;;;17.60;12.67;;;29.20;48.20;;;;;;6193686;28;20194;-67
2023/10/02 15:19:58;;;;;;;19.57;13.43;;;;;;;;;;6208277;28;20202;-67
2023/10/02 15:22:59;;;;;;;16.63;12.00;;;;;;;;;;6204062;28;20265;-67
2023/10/02 15:26:00;;;;;;;15.90;12.83;;;;;;;;;;6205524;28;20210;-67
2023/10/02 15:29:04;;;;;;;15.70;13.10;;;;;;;;;;6226109;28;20185;-67
2023/10/02 15:32:09;;;;;;;15.40;11.80;;;;;;;;;;6206492;28;20210;-68
2023/10/02 15:35:11;;;;;;;17.77;12.57;;;29.00;48.90;;;;;;6215966;28;20191;-67
2023/10/02 15:38:13;;;;;;;15.37;11.80;;;;;;;;;;6229197;28;20248;-67
2023/10/02 15:41:27;;;;;;;20.90;12.43;;;;;;;;;;6212236;28;20202;-67
2023/10/02 15:44:29;;;;;;;18.13;12.20;;;;;;;;;;6222227;28;20257;-69
2023/10/02 15:47:31;;;;;;;15.40;11.60;;;;;;;;;;6206291;28;20179;-70
2023/10/02 15:50:33;;;;;;;17.77;13.00;;;26.90;55.00;;;;;;6219890;28;20225;-70
2023/10/02 15:53:35;;;;;;;27.17;13.23;;;;;;;;;;6186742;28;20213;-68
2023/10/02 15:56:37;;;;;;;27.10;13.90;;;;;;;;;;6229898;28;20187;-71
2023/10/02 15:59:38;;;;;;;23.30;12.90;;;;;;;;;;6223588;28;20183;-71
2023/10/02 16:02:40;;;;;;;18.37;12.47;;;25.20;60.30;;;;;;6215836;28;20195;-71
2023/10/02 16:05:44;;;;;;;16.33;12.50;;;;;;;;;;6228126;28;20209;-71
2023/10/02 16:08:48;;;;;;;18.20;12.63;;;;;;;;;;6222356;28;20222;-71
2023/10/02 16:11:49;;;;;;;18.37;12.10;;;;;;;;;;6205438;28;20194;-71
2023/10/02 16:14:50;;;;;;;19.07;12.33;;;24.20;62.00;;;;;;6213792;28;20202;-70
2023/10/02 16:17:53;;;;;;;14.30;11.13;;;;;;;;;;6222599;28;20192;-71
2023/10/02 16:20:54;;;;;;;17.03;12.30;;;;;;;;;;6212689;28;20214;-69
2023/10/02 16:23:55;;;;;;;20.20;12.53;;;;;;;;;;6195928;28;20369;-71
2023/10/02 16:26:56;;;;;;;15.60;12.13;;;;;;;;;;6201130;28;20183;-72
2023/10/02 16:29:57;;;;;;;18.50;12.40;;;;;;;;;;6218158;28;20215;-73
2023/10/02 16:32:58;;;;;;;24.57;13.57;;;;;;;;;;6203287;28;20241;-73
2023/10/02 16:36:03;;;;;;;19.93;12.87;;;;;;;;;;6206962;28;20191;-73
2023/10/02 16:39:04;;;;;;;21.47;13.03;;;;;;;;;;6201354;28;20199;-73
2023/10/02 16:42:05;;;;;;;18.23;12.23;;;;;;;;;;6195677;28;20191;-74
2023/10/02 16:45:11;;;;;;;18.77;12.77;;;;;;;;;;6206888;28;20218;-74
2023/10/02 16:48:11;;;;;;;20.50;12.60;;;24.00;50.00;;;;;;6205173;28;20187;-74
2023/10/02 16:51:15;;;;;;;18.73;11.97;;;;;;;;;;6186427;28;20204;-73
2023/10/02 16:54:16;;;;;;;17.97;12.73;;;;;;;;;;6198157;28;20219;-73
2023/10/02 16:57:17;;;;;;;17.87;12.60;;;;;;;;;;6228222;28;20390;-73
2023/10/02 17:00:20;;;;;;;18.93;12.17;;;;;;;;;;6219642;28;20198;-74
2023/10/02 17:03:22;;;;;;;18.13;12.57;;;;;;;;;;6225550;28;20265;-72
2023/10/02 17:06:25;;;;;;;18.27;12.57;;;;;;;;;;6218384;28;20211;-72
2023/10/02 17:09:29;;;;;;;18.83;13.00;;;20.70;72.80;;;;;;6199787;28;20184;-71
2023/10/02 17:12:30;;;;;;;17.73;13.63;;;19.70;76.80;;;;;;6195693;28;20191;-72
2023/10/02 17:15:33;;;;;;;19.37;12.77;;;19.60;77.50;;;;;;6210441;28;20192;-70
2023/10/02 17:18:38;;;;;;;18.33;13.00;;;19.50;78.00;;;;;;6213903;28;20206;-70
2023/10/02 17:21:39;;;;;;;19.73;13.47;;;19.40;78.80;;;;;;6215644;28;20214;-68
2023/10/02 17:24:40;;;;;;;18.73;12.57;;;19.30;79.20;;;;;;6217146;28;20211;-71
2023/10/02 17:27:42;;;;;;;20.67;14.10;;;19.20;79.30;;;;;;6199596;28;20191;-71
2023/10/02 17:30:43;;;;;;;18.70;13.53;;;19.10;79.50;;;;;;6198000;28;20199;-70
2023/10/02 17:33:45;;;;;;;17.57;12.80;;;19.00;79.90;;;;;;6198122;28;20282;-70
2023/10/02 17:36:49;;;;;;;20.03;13.23;;;19.00;80.00;;;;;;6200623;28;20202;-73
2023/10/02 17:39:50;;;;;;;17.63;13.07;;;18.90;80.30;;;;;;6222890;28;20218;-72
2023/10/02 17:42:51;;;;;;;15.70;11.93;;;;;;;;;;6226666;28;20190;-72
2023/10/02 17:45:53;;;;;;;17.83;13.00;;;;;;;;;;6217091;28;20207;-72
2023/10/02 17:48:55;;;;;;;20.10;12.40;;;;;;;;;;6240861;28;20245;-72
2023/10/02 17:51:59;;;;;;;21.90;14.20;;;;;;;;;;6218033;28;20206;-72
2023/10/02 17:55:00;;;;;;;17.87;12.90;;;;;;;;;;6207281;28;20199;-73
2023/10/02 17:58:02;;;;;;;19.87;13.80;;;;;;;;;;6209604;28;20194;-72
2023/10/02 18:01:04;;;;;;;16.80;13.33;;;;;;;;;;6247164;28;20197;-73
2023/10/02 18:04:10;;;;;;;20.60;14.53;;;;;;;;;;6211694;28;20210;-72
2023/10/02 18:07:11;;;;;;;18.67;13.87;;;;;;;;;;6222024;28;20195;-73
2023/10/02 18:10:18;;;;;;;19.63;13.83;;;;;;;;;;6200040;28;20183;-72
2023/10/02 18:13:19;;;;;;;18.93;13.07;;;;;;;;;;6228694;28;20219;-73
2023/10/02 18:16:20;;;;;;;15.47;12.20;;;;;;;;;;6220019;28;20212;-72
2023/10/02 18:19:22;;;;;;;19.00;13.33;;;;;;;;;;6236904;28;20204;-72